sensor_id;sensor_type;location;lat;lon;timestamp;P1;durP1;ratioP1;P2;durP2;ratioP2
68947;SDS011;55996;49.546;7.400;2023-07-16T00:00:10;4.83;;;2.37;;
68947;SDS011;55996;49.546;7.400;2023-07-16T00:02:37;2.90;;;2.23;;
68947;SDS011;55996;49.546;7.400;2023-07-16T00:05:03;3.30;;;2.47;;
68947;SDS011;55996;49.546;7.400;2023-07-16T00:07:29;3.00;;;2.37;;
68947;SDS011;55996;49.546;7.400;2023-07-16T00:09:55;5.23;;;2.20;;
68947;SDS011;55996;49.546;7.400;2023-07-16T00:12:20;6.30;;;2.33;;
68947;SDS011;55996;49.546;7.400;2023-07-16T00:14:47;4.73;;;2.40;;
68947;SDS011;55996;49.546;7.400;2023-07-16T00:17:12;5.60;;;2.33;;
68947;SDS011;55996;49.546;7.400;2023-07-16T00:19:38;3.43;;;2.23;;
68947;SDS011;55996;49.546;7.400;2023-07-16T00:22:03;3.53;;;2.33;;
68947;SDS011;55996;49.546;7.400;2023-07-16T00:24:29;5.90;;;2.50;;
68947;SDS011;55996;49.546;7.400;2023-07-16T00:26:54;5.37;;;2.30;;
68947;SDS011;55996;49.546;7.400;2023-07-16T00:29:20;4.13;;;2.63;;
68947;SDS011;55996;49.546;7.400;2023-07-16T00:31:45;6.17;;;2.53;;
68947;SDS011;55996;49.546;7.400;2023-07-16T00:34:11;4.53;;;2.50;;
68947;SDS011;55996;49.546;7.400;2023-07-16T00:36:38;3.03;;;2.00;;
68947;SDS011;55996;49.546;7.400;2023-07-16T00:39:03;4.60;;;2.20;;
68947;SDS011;55996;49.546;7.400;2023-07-16T00:41:29;5.07;;;2.50;;
68947;SDS011;55996;49.546;7.400;2023-07-16T00:43:54;7.97;;;2.57;;
68947;SDS011;55996;49.546;7.400;2023-07-16T00:46:20;4.13;;;2.23;;
68947;SDS011;55996;49.546;7.400;2023-07-16T00:48:45;6.13;;;2.73;;
68947;SDS011;55996;49.546;7.400;2023-07-16T00:51:11;3.43;;;2.43;;
68947;SDS011;55996;49.546;7.400;2023-07-16T00:53:36;4.70;;;2.93;;
68947;SDS011;55996;49.546;7.400;2023-07-16T00:56:02;7.10;;;2.87;;
68947;SDS011;55996;49.546;7.400;2023-07-16T00:58:27;7.13;;;2.47;;
68947;SDS011;55996;49.546;7.400;2023-07-16T01:00:53;5.27;;;2.70;;
68947;SDS011;55996;49.546;7.400;2023-07-16T01:03:18;5.13;;;2.77;;
68947;SDS011;55996;49.546;7.400;2023-07-16T01:08:46;8.87;;;2.67;;
68947;SDS011;55996;49.546;7.400;2023-07-16T01:11:11;7.30;;;2.40;;
68947;SDS011;55996;49.546;7.400;2023-07-16T01:13:37;6.37;;;2.97;;
68947;SDS011;55996;49.546;7.400;2023-07-16T01:16:04;7.23;;;2.50;;
68947;SDS011;55996;49.546;7.400;2023-07-16T01:18:30;4.57;;;2.43;;
68947;SDS011;55996;49.546;7.400;2023-07-16T01:20:55;8.03;;;2.63;;
68947;SDS011;55996;49.546;7.400;2023-07-16T01:29:41;5.13;;;2.70;;
68947;SDS011;55996;49.546;7.400;2023-07-16T01:32:12;7.13;;;3.00;;
68947;SDS011;55996;49.546;7.400;2023-07-16T01:34:39;6.17;;;2.70;;
68947;SDS011;55996;49.546;7.400;2023-07-16T01:37:05;13.07;;;2.70;;
68947;SDS011;55996;49.546;7.400;2023-07-16T01:39:30;6.27;;;2.90;;
68947;SDS011;55996;49.546;7.400;2023-07-16T01:41:59;7.30;;;2.53;;
68947;SDS011;55996;49.546;7.400;2023-07-16T01:44:25;6.27;;;3.03;;
68947;SDS011;55996;49.546;7.400;2023-07-16T01:49:36;6.60;;;2.67;;
68947;SDS011;55996;49.546;7.400;2023-07-16T01:52:02;6.63;;;2.83;;
68947;SDS011;55996;49.546;7.400;2023-07-16T01:54:28;8.73;;;2.50;;
68947;SDS011;55996;49.546;7.400;2023-07-16T01:56:54;5.30;;;2.87;;
68947;SDS011;55996;49.546;7.400;2023-07-16T01:59:20;8.67;;;2.83;;
68947;SDS011;55996;49.546;7.400;2023-07-16T02:01:45;6.47;;;2.97;;
68947;SDS011;55996;49.546;7.400;2023-07-16T02:04:10;6.20;;;2.70;;
68947;SDS011;55996;49.546;7.400;2023-07-16T02:06:36;6.70;;;3.20;;
68947;SDS011;55996;49.546;7.400;2023-07-16T02:09:01;4.23;;;2.53;;
68947;SDS011;55996;49.546;7.400;2023-07-16T02:11:27;4.43;;;2.70;;
68947;SDS011;55996;49.546;7.400;2023-07-16T02:13:52;6.80;;;2.93;;
68947;SDS011;55996;49.546;7.400;2023-07-16T02:16:18;4.47;;;2.30;;
68947;SDS011;55996;49.546;7.400;2023-07-16T02:18:43;7.87;;;2.80;;
68947;SDS011;55996;49.546;7.400;2023-07-16T02:21:09;9.80;;;3.23;;
68947;SDS011;55996;49.546;7.400;2023-07-16T02:23:34;7.00;;;2.63;;
68947;SDS011;55996;49.546;7.400;2023-07-16T02:26:00;8.97;;;3.10;;
68947;SDS011;55996;49.546;7.400;2023-07-16T02:28:26;6.93;;;3.33;;
68947;SDS011;55996;49.546;7.400;2023-07-16T02:30:51;5.83;;;2.93;;
68947;SDS011;55996;49.546;7.400;2023-07-16T02:33:16;8.90;;;3.33;;
68947;SDS011;55996;49.546;7.400;2023-07-16T02:35:45;7.90;;;3.17;;
68947;SDS011;55996;49.546;7.400;2023-07-16T02:38:12;7.70;;;3.00;;
68947;SDS011;55996;49.546;7.400;2023-07-16T02:40:42;9.57;;;3.10;;
68947;SDS011;55996;49.546;7.400;2023-07-16T02:43:11;8.27;;;2.67;;
68947;SDS011;55996;49.546;7.400;2023-07-16T02:45:37;6.17;;;2.90;;
68947;SDS011;55996;49.546;7.400;2023-07-16T02:48:05;11.97;;;3.37;;
68947;SDS011;55996;49.546;7.400;2023-07-16T02:50:34;7.77;;;3.13;;
68947;SDS011;55996;49.546;7.400;2023-07-16T02:53:01;6.47;;;2.93;;
68947;SDS011;55996;49.546;7.400;2023-07-16T02:55:28;6.93;;;3.10;;
68947;SDS011;55996;49.546;7.400;2023-07-16T02:57:53;7.47;;;2.67;;
68947;SDS011;55996;49.546;7.400;2023-07-16T03:00:19;5.33;;;2.93;;
68947;SDS011;55996;49.546;7.400;2023-07-16T03:02:45;10.23;;;3.57;;
68947;SDS011;55996;49.546;7.400;2023-07-16T03:05:10;7.80;;;3.13;;
68947;SDS011;55996;49.546;7.400;2023-07-16T03:07:36;5.83;;;2.93;;
68947;SDS011;55996;49.546;7.400;2023-07-16T03:10:01;10.13;;;3.13;;
68947;SDS011;55996;49.546;7.400;2023-07-16T03:12:27;5.70;;;3.07;;
68947;SDS011;55996;49.546;7.400;2023-07-16T03:14:52;7.87;;;3.07;;
68947;SDS011;55996;49.546;7.400;2023-07-16T03:17:19;6.50;;;3.20;;
68947;SDS011;55996;49.546;7.400;2023-07-16T03:19:47;8.50;;;3.23;;
68947;SDS011;55996;49.546;7.400;2023-07-16T03:22:12;10.43;;;3.10;;
68947;SDS011;55996;49.546;7.400;2023-07-16T03:24:38;7.90;;;3.30;;
68947;SDS011;55996;49.546;7.400;2023-07-16T03:27:03;6.47;;;2.97;;
68947;SDS011;55996;49.546;7.400;2023-07-16T03:29:29;5.67;;;3.20;;
68947;SDS011;55996;49.546;7.400;2023-07-16T03:31:54;7.20;;;3.00;;
68947;SDS011;55996;49.546;7.400;2023-07-16T03:34:20;5.23;;;3.47;;
68947;SDS011;55996;49.546;7.400;2023-07-16T03:36:45;7.83;;;3.50;;
68947;SDS011;55996;49.546;7.400;2023-07-16T03:39:11;5.67;;;3.60;;
68947;SDS011;55996;49.546;7.400;2023-07-16T03:41:36;7.83;;;3.90;;
68947;SDS011;55996;49.546;7.400;2023-07-16T03:44:02;9.43;;;3.33;;
68947;SDS011;55996;49.546;7.400;2023-07-16T03:46:27;7.97;;;3.70;;
68947;SDS011;55996;49.546;7.400;2023-07-16T03:48:53;8.87;;;3.97;;
68947;SDS011;55996;49.546;7.400;2023-07-16T03:51:18;9.33;;;4.17;;
68947;SDS011;55996;49.546;7.400;2023-07-16T03:53:44;11.37;;;3.90;;
68947;SDS011;55996;49.546;7.400;2023-07-16T03:56:09;9.23;;;4.30;;
68947;SDS011;55996;49.546;7.400;2023-07-16T03:58:35;12.70;;;4.00;;
68947;SDS011;55996;49.546;7.400;2023-07-16T04:01:00;6.73;;;3.83;;
68947;SDS011;55996;49.546;7.400;2023-07-16T04:03:25;9.13;;;4.07;;
68947;SDS011;55996;49.546;7.400;2023-07-16T04:05:51;8.07;;;3.40;;
68947;SDS011;55996;49.546;7.400;2023-07-16T04:08:16;11.43;;;3.80;;
68947;SDS011;55996;49.546;7.400;2023-07-16T04:10:42;10.70;;;4.20;;
68947;SDS011;55996;49.546;7.400;2023-07-16T04:13:07;10.43;;;4.07;;
68947;SDS011;55996;49.546;7.400;2023-07-16T04:15:32;7.47;;;4.17;;
68947;SDS011;55996;49.546;7.400;2023-07-16T04:17:58;8.93;;;3.80;;
68947;SDS011;55996;49.546;7.400;2023-07-16T04:20:23;7.77;;;3.47;;
68947;SDS011;55996;49.546;7.400;2023-07-16T04:22:49;8.77;;;3.50;;
68947;SDS011;55996;49.546;7.400;2023-07-16T04:25:15;7.70;;;3.67;;
68947;SDS011;55996;49.546;7.400;2023-07-16T04:27:41;11.30;;;3.90;;
68947;SDS011;55996;49.546;7.400;2023-07-16T04:30:07;7.57;;;3.70;;
68947;SDS011;55996;49.546;7.400;2023-07-16T04:32:33;9.77;;;4.60;;
68947;SDS011;55996;49.546;7.400;2023-07-16T04:34:58;8.87;;;3.80;;
68947;SDS011;55996;49.546;7.400;2023-07-16T04:37:24;10.97;;;4.10;;
68947;SDS011;55996;49.546;7.400;2023-07-16T04:39:50;7.53;;;3.70;;
68947;SDS011;55996;49.546;7.400;2023-07-16T04:42:15;11.60;;;3.97;;
68947;SDS011;55996;49.546;7.400;2023-07-16T04:44:41;11.47;;;4.17;;
68947;SDS011;55996;49.546;7.400;2023-07-16T04:47:07;9.97;;;4.00;;
68947;SDS011;55996;49.546;7.400;2023-07-16T04:49:34;10.67;;;3.90;;
68947;SDS011;55996;49.546;7.400;2023-07-16T04:52:00;7.70;;;4.20;;
68947;SDS011;55996;49.546;7.400;2023-07-16T04:54:25;12.20;;;4.27;;
68947;SDS011;55996;49.546;7.400;2023-07-16T04:56:51;10.33;;;4.53;;
68947;SDS011;55996;49.546;7.400;2023-07-16T04:59:16;6.93;;;4.27;;
68947;SDS011;55996;49.546;7.400;2023-07-16T05:01:42;12.73;;;4.43;;
68947;SDS011;55996;49.546;7.400;2023-07-16T05:04:07;10.27;;;4.73;;
68947;SDS011;55996;49.546;7.400;2023-07-16T05:06:33;9.13;;;4.40;;
68947;SDS011;55996;49.546;7.400;2023-07-16T05:08:58;12.37;;;4.90;;
68947;SDS011;55996;49.546;7.400;2023-07-16T05:11:24;9.40;;;4.33;;
68947;SDS011;55996;49.546;7.400;2023-07-16T05:13:50;9.47;;;4.80;;
68947;SDS011;55996;49.546;7.400;2023-07-16T05:16:16;10.13;;;4.33;;
68947;SDS011;55996;49.546;7.400;2023-07-16T05:18:41;7.47;;;4.30;;
68947;SDS011;55996;49.546;7.400;2023-07-16T05:21:06;11.90;;;4.27;;
68947;SDS011;55996;49.546;7.400;2023-07-16T05:23:32;11.27;;;4.43;;
68947;SDS011;55996;49.546;7.400;2023-07-16T05:25:57;14.67;;;4.57;;
68947;SDS011;55996;49.546;7.400;2023-07-16T05:28:23;12.87;;;4.20;;
68947;SDS011;55996;49.546;7.400;2023-07-16T05:30:57;9.03;;;3.50;;
68947;SDS011;55996;49.546;7.400;2023-07-16T05:33:25;8.27;;;3.30;;
68947;SDS011;55996;49.546;7.400;2023-07-16T05:35:51;9.37;;;3.60;;
68947;SDS011;55996;49.546;7.400;2023-07-16T05:38:16;8.93;;;3.50;;
68947;SDS011;55996;49.546;7.400;2023-07-16T05:40:42;9.73;;;3.40;;
68947;SDS011;55996;49.546;7.400;2023-07-16T05:43:07;7.83;;;3.50;;
68947;SDS011;55996;49.546;7.400;2023-07-16T05:45:32;9.70;;;3.20;;
68947;SDS011;55996;49.546;7.400;2023-07-16T05:47:59;9.03;;;3.40;;
68947;SDS011;55996;49.546;7.400;2023-07-16T05:50:24;9.00;;;3.23;;
68947;SDS011;55996;49.546;7.400;2023-07-16T05:52:50;15.90;;;3.27;;
68947;SDS011;55996;49.546;7.400;2023-07-16T05:55:16;8.27;;;3.23;;
68947;SDS011;55996;49.546;7.400;2023-07-16T05:57:42;9.30;;;3.47;;
68947;SDS011;55996;49.546;7.400;2023-07-16T06:00:08;6.57;;;3.33;;
68947;SDS011;55996;49.546;7.400;2023-07-16T06:02:34;6.13;;;2.93;;
68947;SDS011;55996;49.546;7.400;2023-07-16T06:05:00;9.57;;;3.30;;
68947;SDS011;55996;49.546;7.400;2023-07-16T06:07:25;14.77;;;3.97;;
68947;SDS011;55996;49.546;7.400;2023-07-16T06:09:50;7.87;;;3.40;;
68947;SDS011;55996;49.546;7.400;2023-07-16T06:12:16;5.93;;;3.07;;
68947;SDS011;55996;49.546;7.400;2023-07-16T06:14:41;7.27;;;3.53;;
68947;SDS011;55996;49.546;7.400;2023-07-16T06:17:06;6.57;;;3.20;;
68947;SDS011;55996;49.546;7.400;2023-07-16T06:19:32;8.20;;;3.27;;
68947;SDS011;55996;49.546;7.400;2023-07-16T06:21:57;9.50;;;3.33;;
68947;SDS011;55996;49.546;7.400;2023-07-16T06:24:23;7.73;;;3.57;;
68947;SDS011;55996;49.546;7.400;2023-07-16T06:26:48;6.47;;;3.50;;
68947;SDS011;55996;49.546;7.400;2023-07-16T06:29:14;8.97;;;3.33;;
68947;SDS011;55996;49.546;7.400;2023-07-16T06:31:41;14.50;;;4.30;;
68947;SDS011;55996;49.546;7.400;2023-07-16T06:34:07;8.73;;;3.67;;
68947;SDS011;55996;49.546;7.400;2023-07-16T06:36:33;8.07;;;3.30;;
68947;SDS011;55996;49.546;7.400;2023-07-16T06:38:58;7.17;;;3.60;;
68947;SDS011;55996;49.546;7.400;2023-07-16T06:41:25;10.13;;;4.30;;
68947;SDS011;55996;49.546;7.400;2023-07-16T06:43:51;8.23;;;3.90;;
68947;SDS011;55996;49.546;7.400;2023-07-16T06:46:16;13.47;;;3.97;;
68947;SDS011;55996;49.546;7.400;2023-07-16T06:48:41;10.10;;;3.80;;
68947;SDS011;55996;49.546;7.400;2023-07-16T06:51:07;8.73;;;3.63;;
68947;SDS011;55996;49.546;7.400;2023-07-16T06:53:33;12.73;;;3.73;;
68947;SDS011;55996;49.546;7.400;2023-07-16T06:55:58;8.70;;;3.60;;
68947;SDS011;55996;49.546;7.400;2023-07-16T06:58:33;12.57;;;3.87;;
68947;SDS011;55996;49.546;7.400;2023-07-16T07:00:59;8.47;;;4.47;;
68947;SDS011;55996;49.546;7.400;2023-07-16T07:03:24;10.57;;;4.00;;
68947;SDS011;55996;49.546;7.400;2023-07-16T07:05:50;11.93;;;3.97;;
68947;SDS011;55996;49.546;7.400;2023-07-16T07:08:15;7.27;;;3.83;;
68947;SDS011;55996;49.546;7.400;2023-07-16T07:10:41;10.47;;;4.17;;
68947;SDS011;55996;49.546;7.400;2023-07-16T07:13:06;8.43;;;3.80;;
68947;SDS011;55996;49.546;7.400;2023-07-16T07:15:31;9.13;;;3.30;;
68947;SDS011;55996;49.546;7.400;2023-07-16T07:17:57;9.23;;;3.87;;
68947;SDS011;55996;49.546;7.400;2023-07-16T07:20:22;9.70;;;3.73;;
68947;SDS011;55996;49.546;7.400;2023-07-16T07:22:48;7.07;;;4.13;;
68947;SDS011;55996;49.546;7.400;2023-07-16T07:25:13;6.63;;;3.67;;
68947;SDS011;55996;49.546;7.400;2023-07-16T07:27:39;5.77;;;4.00;;
68947;SDS011;55996;49.546;7.400;2023-07-16T07:30:04;10.50;;;4.43;;
68947;SDS011;55996;49.546;7.400;2023-07-16T07:32:30;9.90;;;4.23;;
68947;SDS011;55996;49.546;7.400;2023-07-16T07:34:56;9.90;;;4.23;;
68947;SDS011;55996;49.546;7.400;2023-07-16T07:37:21;7.20;;;3.80;;
68947;SDS011;55996;49.546;7.400;2023-07-16T07:39:51;9.80;;;4.30;;
68947;SDS011;55996;49.546;7.400;2023-07-16T07:42:17;10.63;;;4.47;;
68947;SDS011;55996;49.546;7.400;2023-07-16T07:44:42;7.23;;;3.90;;
68947;SDS011;55996;49.546;7.400;2023-07-16T07:47:08;11.30;;;4.77;;
68947;SDS011;55996;49.546;7.400;2023-07-16T07:49:33;7.07;;;4.30;;
68947;SDS011;55996;49.546;7.400;2023-07-16T07:51:59;10.07;;;5.07;;
68947;SDS011;55996;49.546;7.400;2023-07-16T07:54:25;9.20;;;4.50;;
68947;SDS011;55996;49.546;7.400;2023-07-16T07:56:50;9.30;;;4.10;;
68947;SDS011;55996;49.546;7.400;2023-07-16T07:59:16;8.53;;;3.73;;
68947;SDS011;55996;49.546;7.400;2023-07-16T08:01:41;7.63;;;3.57;;
68947;SDS011;55996;49.546;7.400;2023-07-16T08:04:06;11.77;;;4.10;;
68947;SDS011;55996;49.546;7.400;2023-07-16T08:06:32;10.35;;;3.80;;
68947;SDS011;55996;49.546;7.400;2023-07-16T08:08:57;8.20;;;3.75;;
68947;SDS011;55996;49.546;7.400;2023-07-16T08:11:23;8.35;;;3.90;;
68947;SDS011;55996;49.546;7.400;2023-07-16T08:13:48;10.17;;;3.73;;
68947;SDS011;55996;49.546;7.400;2023-07-16T08:16:14;8.85;;;3.67;;
68947;SDS011;55996;49.546;7.400;2023-07-16T08:18:40;9.57;;;3.77;;
68947;SDS011;55996;49.546;7.400;2023-07-16T08:21:05;7.73;;;3.43;;
68947;SDS011;55996;49.546;7.400;2023-07-16T08:23:31;9.53;;;3.63;;
68947;SDS011;55996;49.546;7.400;2023-07-16T08:25:56;11.17;;;4.27;;
68947;SDS011;55996;49.546;7.400;2023-07-16T08:28:22;12.00;;;3.73;;
68947;SDS011;55996;49.546;7.400;2023-07-16T08:30:47;11.63;;;3.83;;
68947;SDS011;55996;49.546;7.400;2023-07-16T08:33:13;10.57;;;3.70;;
68947;SDS011;55996;49.546;7.400;2023-07-16T08:35:39;11.95;;;3.50;;
68947;SDS011;55996;49.546;7.400;2023-07-16T08:38:05;10.00;;;3.70;;
68947;SDS011;55996;49.546;7.400;2023-07-16T08:40:34;8.87;;;4.27;;
68947;SDS011;55996;49.546;7.400;2023-07-16T08:43:01;8.30;;;3.73;;
68947;SDS011;55996;49.546;7.400;2023-07-16T08:45:30;8.45;;;3.78;;
68947;SDS011;55996;49.546;7.400;2023-07-16T08:48:01;7.80;;;3.70;;
68947;SDS011;55996;49.546;7.400;2023-07-16T08:50:27;7.73;;;3.50;;
68947;SDS011;55996;49.546;7.400;2023-07-16T08:52:54;8.35;;;4.18;;
68947;SDS011;55996;49.546;7.400;2023-07-16T08:55:20;11.55;;;4.20;;
68947;SDS011;55996;49.546;7.400;2023-07-16T08:57:46;10.38;;;3.90;;
68947;SDS011;55996;49.546;7.400;2023-07-16T09:00:13;9.30;;;3.45;;
68947;SDS011;55996;49.546;7.400;2023-07-16T09:02:40;8.10;;;3.38;;
68947;SDS011;55996;49.546;7.400;2023-07-16T09:05:08;5.68;;;3.15;;
68947;SDS011;55996;49.546;7.400;2023-07-16T09:07:35;10.30;;;3.50;;
68947;SDS011;55996;49.546;7.400;2023-07-16T09:10:02;9.43;;;3.25;;
68947;SDS011;55996;49.546;7.400;2023-07-16T09:12:28;6.63;;;3.60;;
68947;SDS011;55996;49.546;7.400;2023-07-16T09:14:55;8.48;;;3.90;;
68947;SDS011;55996;49.546;7.400;2023-07-16T09:17:24;10.27;;;3.42;;
68947;SDS011;55996;49.546;7.400;2023-07-16T09:19:53;8.65;;;3.47;;
68947;SDS011;55996;49.546;7.400;2023-07-16T09:22:19;6.40;;;3.35;;
68947;SDS011;55996;49.546;7.400;2023-07-16T09:24:45;8.50;;;3.58;;
68947;SDS011;55996;49.546;7.400;2023-07-16T09:27:13;7.03;;;3.60;;
68947;SDS011;55996;49.546;7.400;2023-07-16T09:29:39;7.97;;;3.60;;
68947;SDS011;55996;49.546;7.400;2023-07-16T09:32:04;6.53;;;3.60;;
68947;SDS011;55996;49.546;7.400;2023-07-16T09:34:30;5.47;;;3.90;;
68947;SDS011;55996;49.546;7.400;2023-07-16T09:37:00;7.60;;;3.60;;
68947;SDS011;55996;49.546;7.400;2023-07-16T09:39:26;7.47;;;3.53;;
68947;SDS011;55996;49.546;7.400;2023-07-16T09:41:52;6.05;;;3.50;;
68947;SDS011;55996;49.546;7.400;2023-07-16T09:44:18;7.47;;;4.00;;
68947;SDS011;55996;49.546;7.400;2023-07-16T09:46:44;6.13;;;3.60;;
68947;SDS011;55996;49.546;7.400;2023-07-16T09:49:11;6.55;;;3.63;;
68947;SDS011;55996;49.546;7.400;2023-07-16T09:51:37;9.93;;;4.43;;
68947;SDS011;55996;49.546;7.400;2023-07-16T09:54:03;9.05;;;4.18;;
68947;SDS011;55996;49.546;7.400;2023-07-16T09:56:36;11.80;;;4.38;;
68947;SDS011;55996;49.546;7.400;2023-07-16T09:59:06;6.65;;;3.60;;
68947;SDS011;55996;49.546;7.400;2023-07-16T10:01:36;7.63;;;4.40;;
68947;SDS011;55996;49.546;7.400;2023-07-16T10:04:22;9.60;;;4.07;;
68947;SDS011;55996;49.546;7.400;2023-07-16T10:06:55;5.80;;;4.05;;
68947;SDS011;55996;49.546;7.400;2023-07-16T10:09:32;8.38;;;3.92;;
68947;SDS011;55996;49.546;7.400;2023-07-16T10:14:38;8.18;;;4.60;;
68947;SDS011;55996;49.546;7.400;2023-07-16T10:17:05;8.52;;;4.22;;
68947;SDS011;55996;49.546;7.400;2023-07-16T10:19:31;7.57;;;4.25;;
68947;SDS011;55996;49.546;7.400;2023-07-16T10:21:59;7.68;;;3.90;;
68947;SDS011;55996;49.546;7.400;2023-07-16T10:24:26;7.25;;;4.32;;
68947;SDS011;55996;49.546;7.400;2023-07-16T10:26:52;8.65;;;3.90;;
68947;SDS011;55996;49.546;7.400;2023-07-16T10:29:18;5.45;;;3.80;;
68947;SDS011;55996;49.546;7.400;2023-07-16T10:31:43;7.72;;;4.07;;
68947;SDS011;55996;49.546;7.400;2023-07-16T10:34:10;7.45;;;4.57;;
68947;SDS011;55996;49.546;7.400;2023-07-16T10:36:37;12.23;;;4.55;;
68947;SDS011;55996;49.546;7.400;2023-07-16T10:39:05;8.73;;;4.18;;
68947;SDS011;55996;49.546;7.400;2023-07-16T10:41:31;4.72;;;3.70;;
68947;SDS011;55996;49.546;7.400;2023-07-16T10:44:00;9.90;;;4.25;;
68947;SDS011;55996;49.546;7.400;2023-07-16T10:46:26;5.35;;;3.85;;
68947;SDS011;55996;49.546;7.400;2023-07-16T10:48:52;6.82;;;4.50;;
68947;SDS011;55996;49.546;7.400;2023-07-16T10:51:17;10.70;;;4.05;;
68947;SDS011;55996;49.546;7.400;2023-07-16T10:53:50;5.88;;;4.15;;
68947;SDS011;55996;49.546;7.400;2023-07-16T10:56:15;6.15;;;3.88;;
68947;SDS011;55996;49.546;7.400;2023-07-16T10:58:41;7.22;;;4.05;;
68947;SDS011;55996;49.546;7.400;2023-07-16T11:01:10;9.23;;;4.00;;
68947;SDS011;55996;49.546;7.400;2023-07-16T11:03:36;6.15;;;3.47;;
68947;SDS011;55996;49.546;7.400;2023-07-16T11:06:11;9.00;;;3.95;;
68947;SDS011;55996;49.546;7.400;2023-07-16T11:08:41;8.55;;;3.97;;
68947;SDS011;55996;49.546;7.400;2023-07-16T11:11:07;7.35;;;3.83;;
68947;SDS011;55996;49.546;7.400;2023-07-16T11:13:33;7.85;;;3.70;;
68947;SDS011;55996;49.546;7.400;2023-07-16T11:16:08;8.85;;;4.00;;
68947;SDS011;55996;49.546;7.400;2023-07-16T11:18:34;6.53;;;4.18;;
68947;SDS011;55996;49.546;7.400;2023-07-16T11:21:00;6.75;;;3.67;;
68947;SDS011;55996;49.546;7.400;2023-07-16T11:23:25;9.60;;;4.43;;
68947;SDS011;55996;49.546;7.400;2023-07-16T11:25:52;7.72;;;4.55;;
68947;SDS011;55996;49.546;7.400;2023-07-16T11:28:17;7.53;;;3.90;;
68947;SDS011;55996;49.546;7.400;2023-07-16T11:30:43;7.50;;;4.15;;
68947;SDS011;55996;49.546;7.400;2023-07-16T11:33:11;7.35;;;4.00;;
68947;SDS011;55996;49.546;7.400;2023-07-16T11:35:38;6.55;;;3.63;;
68947;SDS011;55996;49.546;7.400;2023-07-16T11:38:04;8.77;;;3.90;;
68947;SDS011;55996;49.546;7.400;2023-07-16T11:40:31;6.78;;;3.50;;
68947;SDS011;55996;49.546;7.400;2023-07-16T11:43:06;5.22;;;3.70;;
68947;SDS011;55996;49.546;7.400;2023-07-16T11:45:36;8.48;;;3.83;;
68947;SDS011;55996;49.546;7.400;2023-07-16T11:48:01;5.72;;;4.07;;
68947;SDS011;55996;49.546;7.400;2023-07-16T11:50:28;4.90;;;3.67;;
68947;SDS011;55996;49.546;7.400;2023-07-16T11:52:54;5.72;;;3.90;;
68947;SDS011;55996;49.546;7.400;2023-07-16T11:55:21;6.70;;;4.20;;
68947;SDS011;55996;49.546;7.400;2023-07-16T11:57:48;7.63;;;3.88;;
68947;SDS011;55996;49.546;7.400;2023-07-16T12:00:14;5.95;;;3.83;;
68947;SDS011;55996;49.546;7.400;2023-07-16T12:02:39;9.80;;;3.97;;
68947;SDS011;55996;49.546;7.400;2023-07-16T12:05:05;7.43;;;4.10;;
68947;SDS011;55996;49.546;7.400;2023-07-16T12:07:32;5.88;;;4.05;;
68947;SDS011;55996;49.546;7.400;2023-07-16T12:10:03;6.72;;;3.92;;
68947;SDS011;55996;49.546;7.400;2023-07-16T12:12:30;7.78;;;4.03;;
68947;SDS011;55996;49.546;7.400;2023-07-16T12:14:55;8.05;;;4.32;;
68947;SDS011;55996;49.546;7.400;2023-07-16T12:17:21;8.75;;;4.13;;
68947;SDS011;55996;49.546;7.400;2023-07-16T12:19:46;7.00;;;4.20;;
68947;SDS011;55996;49.546;7.400;2023-07-16T12:22:12;7.20;;;4.18;;
68947;SDS011;55996;49.546;7.400;2023-07-16T12:24:38;8.77;;;3.70;;
68947;SDS011;55996;49.546;7.400;2023-07-16T12:27:04;10.77;;;4.40;;
68947;SDS011;55996;49.546;7.400;2023-07-16T12:29:29;5.60;;;3.83;;
68947;SDS011;55996;49.546;7.400;2023-07-16T12:31:55;7.35;;;4.50;;
68947;SDS011;55996;49.546;7.400;2023-07-16T12:34:20;6.55;;;4.20;;
68947;SDS011;55996;49.546;7.400;2023-07-16T12:36:46;9.75;;;4.90;;
68947;SDS011;55996;49.546;7.400;2023-07-16T12:39:11;7.78;;;4.15;;
68947;SDS011;55996;49.546;7.400;2023-07-16T12:41:37;8.35;;;4.47;;
68947;SDS011;55996;49.546;7.400;2023-07-16T12:44:02;6.50;;;4.20;;
68947;SDS011;55996;49.546;7.400;2023-07-16T12:46:28;7.68;;;4.60;;
68947;SDS011;55996;49.546;7.400;2023-07-16T12:48:53;8.07;;;3.80;;
68947;SDS011;55996;49.546;7.400;2023-07-16T12:51:18;6.22;;;3.78;;
68947;SDS011;55996;49.546;7.400;2023-07-16T12:53:44;7.38;;;4.38;;
68947;SDS011;55996;49.546;7.400;2023-07-16T12:56:10;8.63;;;4.10;;
68947;SDS011;55996;49.546;7.400;2023-07-16T12:58:35;8.63;;;4.68;;
68947;SDS011;55996;49.546;7.400;2023-07-16T13:01:01;7.53;;;4.22;;
68947;SDS011;55996;49.546;7.400;2023-07-16T13:03:27;8.10;;;4.60;;
68947;SDS011;55996;49.546;7.400;2023-07-16T13:05:52;8.98;;;4.63;;
68947;SDS011;55996;49.546;7.400;2023-07-16T13:08:18;6.50;;;4.50;;
68947;SDS011;55996;49.546;7.400;2023-07-16T13:10:43;8.38;;;4.28;;
68947;SDS011;55996;49.546;7.400;2023-07-16T13:13:09;6.78;;;4.45;;
68947;SDS011;55996;49.546;7.400;2023-07-16T13:15:34;6.68;;;4.40;;
68947;SDS011;55996;49.546;7.400;2023-07-16T13:18:00;7.25;;;4.15;;
68947;SDS011;55996;49.546;7.400;2023-07-16T13:20:25;8.38;;;4.45;;
68947;SDS011;55996;49.546;7.400;2023-07-16T13:22:51;8.63;;;4.63;;
68947;SDS011;55996;49.546;7.400;2023-07-16T13:25:16;6.55;;;4.28;;
68947;SDS011;55996;49.546;7.400;2023-07-16T13:27:42;6.22;;;4.13;;
68947;SDS011;55996;49.546;7.400;2023-07-16T13:30:07;11.60;;;4.72;;
68947;SDS011;55996;49.546;7.400;2023-07-16T13:32:33;6.60;;;3.97;;
68947;SDS011;55996;49.546;7.400;2023-07-16T13:34:59;7.57;;;4.75;;
68947;SDS011;55996;49.546;7.400;2023-07-16T13:37:24;7.10;;;4.65;;
68947;SDS011;55996;49.546;7.400;2023-07-16T13:39:50;8.02;;;4.80;;
68947;SDS011;55996;49.546;7.400;2023-07-16T13:42:15;9.35;;;5.05;;
68947;SDS011;55996;49.546;7.400;2023-07-16T13:44:41;6.80;;;4.32;;
68947;SDS011;55996;49.546;7.400;2023-07-16T13:47:06;8.15;;;4.47;;
68947;SDS011;55996;49.546;7.400;2023-07-16T13:49:31;14.40;;;5.00;;
68947;SDS011;55996;49.546;7.400;2023-07-16T13:51:57;9.05;;;4.60;;
68947;SDS011;55996;49.546;7.400;2023-07-16T13:54:23;7.25;;;4.40;;
68947;SDS011;55996;49.546;7.400;2023-07-16T13:56:48;7.30;;;4.82;;
68947;SDS011;55996;49.546;7.400;2023-07-16T13:59:14;7.30;;;4.32;;
68947;SDS011;55996;49.546;7.400;2023-07-16T14:01:40;11.30;;;4.82;;
68947;SDS011;55996;49.546;7.400;2023-07-16T14:04:06;11.05;;;4.78;;
68947;SDS011;55996;49.546;7.400;2023-07-16T14:06:32;6.10;;;4.65;;
68947;SDS011;55996;49.546;7.400;2023-07-16T14:08:58;7.70;;;4.63;;
68947;SDS011;55996;49.546;7.400;2023-07-16T14:11:24;9.98;;;4.47;;
68947;SDS011;55996;49.546;7.400;2023-07-16T14:13:49;8.40;;;4.60;;
68947;SDS011;55996;49.546;7.400;2023-07-16T14:16:19;6.50;;;4.53;;
68947;SDS011;55996;49.546;7.400;2023-07-16T14:18:51;7.32;;;4.25;;
68947;SDS011;55996;49.546;7.400;2023-07-16T14:21:17;7.78;;;4.30;;
68947;SDS011;55996;49.546;7.400;2023-07-16T14:23:43;9.85;;;4.97;;
68947;SDS011;55996;49.546;7.400;2023-07-16T14:26:09;6.25;;;4.55;;
68947;SDS011;55996;49.546;7.400;2023-07-16T14:28:34;7.47;;;4.20;;
68947;SDS011;55996;49.546;7.400;2023-07-16T14:31:00;7.18;;;4.45;;
68947;SDS011;55996;49.546;7.400;2023-07-16T14:33:25;8.15;;;4.68;;
68947;SDS011;55996;49.546;7.400;2023-07-16T14:35:51;7.28;;;4.60;;
68947;SDS011;55996;49.546;7.400;2023-07-16T14:38:16;9.05;;;4.50;;
68947;SDS011;55996;49.546;7.400;2023-07-16T14:40:42;9.77;;;4.70;;
68947;SDS011;55996;49.546;7.400;2023-07-16T14:43:07;7.60;;;4.65;;
68947;SDS011;55996;49.546;7.400;2023-07-16T14:45:34;9.70;;;4.45;;
68947;SDS011;55996;49.546;7.400;2023-07-16T14:47:59;8.75;;;4.82;;
68947;SDS011;55996;49.546;7.400;2023-07-16T14:50:25;7.45;;;4.93;;
68947;SDS011;55996;49.546;7.400;2023-07-16T14:52:51;7.68;;;4.88;;